TimeCDT,TemperatureF,Dew PointF,Humidity,Sea Level PressureIn,VisibilityMPH,Wind Direction,Wind SpeedMPH,Gust SpeedMPH,PrecipitationIn,Events,Conditions,WindDirDegrees,DateUTC
12:53 AM,55.0,44.1,67,29.98,10.0,North,6.9,-,N/A,,Mostly Cloudy,360,2012-09-17 05:53:00
1:53 AM,51.1,46.9,86,30.01,4.0,North,5.8,-,0.07,Rain,Rain,360,2012-09-17 06:53:00
2:53 AM,51.1,46.9,86,30.01,10.0,NW,5.8,-,0.00,,Overcast,320,2012-09-17 07:53:00
3:53 AM,50.0,45.0,83,30.00,10.0,NNW,8.1,-,N/A,,Overcast,330,2012-09-17 08:53:00
4:53 AM,50.0,44.1,80,30.01,10.0,NNW,5.8,-,N/A,,Overcast,330,2012-09-17 09:53:00
5:53 AM,50.0,43.0,77,30.02,10.0,NNW,6.9,-,N/A,,Overcast,330,2012-09-17 10:53:00
6:53 AM,48.9,41.0,74,30.02,10.0,NNW,6.9,-,N/A,,Overcast,330,2012-09-17 11:53:00
7:53 AM,48.9,39.9,71,30.03,10.0,NNW,8.1,17.3,N/A,,Scattered Clouds,330,2012-09-17 12:53:00
8:53 AM,50.0,39.9,68,30.04,10.0,NNW,9.2,17.3,N/A,,Clear,340,2012-09-17 13:53:00
9:53 AM,54.0,39.9,59,30.04,10.0,North,13.8,18.4,N/A,,Clear,350,2012-09-17 14:53:00
10:53 AM,54.0,39.0,57,30.06,10.0,NNW,11.5,20.7,N/A,,Clear,340,2012-09-17 15:53:00
11:53 AM,57.9,35.1,42,30.05,10.0,NNW,13.8,24.2,N/A,,Clear,340,2012-09-17 16:53:00
12:53 PM,60.1,33.1,36,30.03,10.0,NW,15.0,23.0,N/A,,Clear,310,2012-09-17 17:53:00
1:53 PM,62.1,30.9,31,30.02,10.0,NW,11.5,19.6,N/A,,Mostly Cloudy,320,2012-09-17 18:53:00
2:53 PM,59.0,30.0,33,30.01,10.0,NNW,11.5,-,N/A,,Mostly Cloudy,330,2012-09-17 19:53:00
3:53 PM,61.0,30.0,31,30.01,10.0,NNW,11.5,20.7,N/A,,Mostly Cloudy,340,2012-09-17 20:53:00
4:53 PM,59.0,28.0,31,30.00,10.0,NW,8.1,-,N/A,,Mostly Cloudy,320,2012-09-17 21:53:00
5:53 PM,57.9,30.0,35,30.01,10.0,North,6.9,-,N/A,,Mostly Cloudy,350,2012-09-17 22:53:00
6:53 PM,55.0,33.1,43,30.02,10.0,NNE,5.8,-,N/A,,Mostly Cloudy,20,2012-09-17 23:53:00
7:53 PM,51.1,34.0,52,30.03,10.0,Calm,Calm,-,N/A,,Partly Cloudy,0,2012-09-18 00:53:00
8:53 PM,46.9,39.9,77,30.07,10.0,North,10.4,-,0.01,,Overcast,10,2012-09-18 01:53:00
9:53 PM,46.0,37.9,73,30.06,10.0,NE,6.9,-,N/A,,Mostly Cloudy,40,2012-09-18 02:53:00
10:53 PM,41.0,37.0,86,30.06,10.0,Calm,Calm,-,N/A,,Clear,0,2012-09-18 03:53:00
11:53 PM,39.9,36.0,86,30.06,10.0,Calm,Calm,-,N/A,,Partly Cloudy,0,2012-09-18 04:53:00